createdAt,value
2019-03-30T00:02:25.403Z,167.82
2019-03-30T00:04:51.872Z,169.40
2019-03-30T00:07:18.315Z,167.62
2019-03-30T00:09:44.705Z,165.37
2019-03-30T00:12:11.065Z,163.80
2019-03-30T00:14:37.424Z,162.50
2019-03-30T00:17:03.769Z,156.70
2019-03-30T00:19:35.177Z,159.27
2019-03-30T00:21:58.394Z,152.87
2019-03-30T00:24:24.773Z,161.95
2019-03-30T00:26:51.155Z,157.35
2019-03-30T00:29:17.575Z,153.42
2019-03-30T00:31:45.295Z,151.22
2019-03-30T00:34:11.823Z,147.15
2019-03-30T00:36:38.208Z,145.17
2019-03-30T00:39:04.734Z,148.20
2019-03-30T00:41:31.358Z,146.47
2019-03-30T00:43:57.736Z,142.25
2019-03-30T00:46:24.105Z,150.40
2019-03-30T00:48:50.576Z,143.62
2019-03-30T00:51:17.185Z,141.32
2019-03-30T00:53:43.635Z,137.65
2019-03-30T00:56:10.011Z,142.80
2019-03-30T00:58:36.471Z,135.10
2019-03-30T01:01:02.839Z,135.18
2019-03-30T01:03:29.284Z,136.65
2019-03-30T01:05:58.181Z,132.25
2019-03-30T01:08:24.002Z,135.78
2019-03-30T01:10:50.507Z,133.43
2019-03-30T01:13:16.950Z,137.43
2019-03-30T01:15:43.339Z,129.42
2019-03-30T01:18:09.693Z,121.20
2019-03-30T01:20:36.083Z,126.47
2019-03-30T01:23:02.439Z,130.87
2019-03-30T01:25:28.861Z,125.53
2019-03-30T01:27:55.333Z,125.40
2019-03-30T01:30:23.335Z,121.07
2019-03-30T01:32:50.014Z,124.10
2019-03-30T01:35:16.508Z,122.40
2019-03-30T01:37:43.073Z,121.80
2019-03-30T01:40:09.476Z,119.53
2019-03-30T01:42:35.864Z,116.82
2019-03-30T01:45:05.106Z,114.92
2019-03-30T01:47:31.466Z,115.47
2019-03-30T01:49:57.810Z,115.50
2019-03-30T01:52:24.188Z,112.77
2019-03-30T01:54:50.550Z,115.42
2019-03-30T01:57:17.057Z,109.37
2019-03-30T01:59:43.437Z,110.57
2019-03-30T02:02:09.868Z,107.70
2019-03-30T02:04:37.318Z,111.80
2019-03-30T02:07:03.666Z,103.92
2019-03-30T02:09:30.148Z,103.55
2019-03-30T02:11:56.598Z,107.67
2019-03-30T02:14:22.999Z,102.35
2019-03-30T02:16:50.451Z,100.72
2019-03-30T02:19:16.911Z,98.45
2019-03-30T02:21:43.292Z,100.58
2019-03-30T02:24:09.655Z,101.40
2019-03-30T02:26:36.001Z,98.35
2019-03-30T02:29:02.387Z,98.22
2019-03-30T02:31:28.832Z,98.47
2019-03-30T02:33:55.218Z,96.12
2019-03-30T02:36:21.794Z,91.80
2019-03-30T02:38:48.190Z,92.25
2019-03-30T02:41:14.619Z,91.75
2019-03-30T02:43:42.198Z,97.20
2019-03-30T02:46:08.683Z,91.02
2019-03-30T02:48:35.037Z,94.37
2019-03-30T02:51:01.541Z,88.45
2019-03-30T02:53:28.327Z,89.97
2019-03-30T02:55:54.850Z,87.47
2019-03-30T02:58:21.325Z,89.95
2019-03-30T03:00:48.797Z,83.82
2019-03-30T03:03:15.290Z,85.03
2019-03-30T03:05:41.742Z,86.47
2019-03-30T03:08:08.214Z,83.05
2019-03-30T03:10:34.907Z,84.05
2019-03-30T03:13:01.270Z,84.70
2019-03-30T03:15:27.628Z,79.87
2019-03-30T03:17:54.084Z,78.75
2019-03-30T03:20:20.476Z,80.42
2019-03-30T03:22:46.886Z,80.65
2019-03-30T03:25:13.307Z,84.47
2019-03-30T03:27:39.774Z,78.65
2019-03-30T03:30:06.125Z,78.15
2019-03-30T03:32:32.506Z,77.87
2019-03-30T03:34:58.868Z,80.38
2019-03-30T03:37:43.416Z,78.00
2019-03-30T03:39:53.511Z,76.05
2019-03-30T03:42:19.972Z,76.28
2019-03-30T03:44:46.376Z,76.20
2019-03-30T03:47:12.836Z,72.75
2019-03-30T03:49:39.213Z,73.90
2019-03-30T03:52:05.565Z,72.35
2019-03-30T03:54:33.137Z,72.20
2019-03-30T03:56:59.623Z,69.58
2019-03-30T03:59:26.152Z,69.62
2019-03-30T04:01:52.562Z,71.25
2019-03-30T04:04:20.863Z,70.05
2019-03-30T04:06:47.223Z,67.92
2019-03-30T04:09:14.881Z,68.40
2019-03-30T04:11:41.389Z,66.95
2019-03-30T04:14:08.010Z,65.92
2019-03-30T04:16:34.394Z,64.87
2019-03-30T04:19:00.863Z,63.60
2019-03-30T04:21:43.569Z,63.55
2019-03-30T04:23:58.603Z,63.63
2019-03-30T04:26:24.976Z,63.83
2019-03-30T04:28:51.324Z,61.20
2019-03-30T04:31:17.697Z,60.08
2019-03-30T04:33:44.065Z,60.73
2019-03-30T04:36:10.538Z,56.90
2019-03-30T04:38:38.430Z,61.60
2019-03-30T04:41:04.808Z,61.20
2019-03-30T04:43:31.271Z,59.03
2019-03-30T04:45:57.718Z,56.10
2019-03-30T04:48:24.060Z,57.25
2019-03-30T04:50:50.491Z,59.48
2019-03-30T04:53:17.428Z,60.08
2019-03-30T04:55:43.804Z,57.05
2019-03-30T04:58:10.283Z,54.60
2019-03-30T05:00:36.711Z,55.48
2019-03-30T05:03:03.096Z,55.23
2019-03-30T05:05:29.450Z,56.33
2019-03-30T05:07:55.820Z,51.75
2019-03-30T05:10:22.201Z,54.13
2019-03-30T05:12:48.681Z,51.15
2019-03-30T05:15:15.091Z,50.35
2019-03-30T05:17:47.477Z,49.25
2019-03-30T05:20:09.749Z,45.73
2019-03-30T05:22:36.133Z,47.30
2019-03-30T05:25:03.192Z,48.68
2019-03-30T05:27:29.684Z,48.15
2019-03-30T05:29:56.099Z,45.75
2019-03-30T05:32:22.462Z,48.95
2019-03-30T05:34:48.872Z,43.85
2019-03-30T05:37:15.474Z,44.83
2019-03-30T05:39:41.842Z,47.03
2019-03-30T05:42:08.230Z,41.68
2019-03-30T05:44:34.593Z,44.67
2019-03-30T05:47:01.016Z,46.58
2019-03-30T05:49:27.389Z,43.95
2019-03-30T05:51:53.734Z,41.70
2019-03-30T05:54:20.133Z,40.52
2019-03-30T05:56:46.480Z,41.58
2019-03-30T05:59:12.865Z,39.90
2019-03-30T06:01:39.208Z,39.10
2019-03-30T06:04:05.612Z,37.28
2019-03-30T06:06:31.966Z,42.58
2019-03-30T06:08:58.344Z,39.13
2019-03-30T06:11:24.724Z,40.30
2019-03-30T06:13:51.108Z,39.60
2019-03-30T06:16:17.467Z,36.85
2019-03-30T06:18:43.872Z,35.55
2019-03-30T06:21:10.217Z,36.55
2019-03-30T06:23:36.609Z,37.00
2019-03-30T06:26:02.959Z,38.48
2019-03-30T06:28:29.406Z,38.17
2019-03-30T06:30:55.755Z,32.25
2019-03-30T06:33:22.128Z,34.08
2019-03-30T06:35:48.516Z,39.23
2019-03-30T06:38:14.871Z,35.25
2019-03-30T06:40:42.344Z,37.48
2019-03-30T06:43:08.723Z,36.83
2019-03-30T06:45:35.086Z,35.17
2019-03-30T06:48:01.500Z,36.50
2019-03-30T06:50:27.987Z,38.42
2019-03-30T06:52:57.822Z,32.42
2019-03-30T06:55:22.636Z,32.33
2019-03-30T06:57:49.090Z,32.28
2019-03-30T07:00:15.567Z,30.35
2019-03-30T07:02:41.922Z,34.03
2019-03-30T07:05:08.386Z,34.88
2019-03-30T07:07:35.259Z,30.43
2019-03-30T07:10:02.347Z,30.65
2019-03-30T07:12:28.715Z,31.73
2019-03-30T07:14:55.069Z,32.95
2019-03-30T07:17:21.453Z,30.68
2019-03-30T07:19:47.824Z,33.10
2019-03-30T07:22:14.250Z,26.05
2019-03-30T07:24:40.651Z,28.95
2019-03-30T07:27:08.248Z,29.77
2019-03-30T07:29:34.628Z,26.05
2019-03-30T07:32:01.132Z,22.37
2019-03-30T07:34:27.532Z,24.25
2019-03-30T07:36:54.007Z,21.15
2019-03-30T07:39:20.466Z,19.17
2019-03-30T07:41:46.828Z,17.07
2019-03-30T07:44:13.291Z,14.10
2019-03-30T07:46:39.733Z,14.03
2019-03-30T07:49:06.194Z,11.18
2019-03-30T07:51:33.676Z,15.63
2019-03-30T07:54:00.282Z,10.65
2019-03-30T07:56:26.642Z,10.00
2019-03-30T07:58:53.007Z,11.80
2019-03-30T08:01:19.402Z,9.40
2019-03-30T08:03:45.774Z,8.83
2019-03-30T08:06:12.145Z,12.45
2019-03-30T08:08:38.510Z,10.95
2019-03-30T08:11:04.925Z,19.02
2019-03-30T08:13:31.293Z,19.70
2019-03-30T08:15:58.234Z,18.48
2019-03-30T08:18:24.599Z,16.35
2019-03-30T08:20:50.990Z,16.48
2019-03-30T08:23:17.505Z,15.13
2019-03-30T08:25:43.887Z,13.32
2019-03-30T08:28:10.235Z,14.63
2019-03-30T08:30:36.713Z,15.50
2019-03-30T08:33:03.495Z,13.58
2019-03-30T08:35:29.852Z,12.85
2019-03-30T08:37:56.199Z,11.40
2019-03-30T08:40:22.558Z,12.98
2019-03-30T08:42:48.935Z,11.88
2019-03-30T08:45:15.519Z,10.23
2019-03-30T08:47:41.882Z,12.20
2019-03-30T08:50:09.251Z,10.82
2019-03-30T08:52:35.604Z,9.90
2019-03-30T08:55:03.533Z,9.50
2019-03-30T08:57:29.913Z,12.53
2019-03-30T08:59:56.271Z,9.38
2019-03-30T09:02:22.756Z,8.45
2019-03-30T09:04:49.121Z,9.33
2019-03-30T09:07:16.093Z,8.13
2019-03-30T09:09:42.479Z,9.65
2019-03-30T09:12:09.133Z,8.75
2019-03-30T09:14:36.605Z,9.05
2019-03-30T09:17:02.990Z,8.28
2019-03-30T09:19:29.540Z,10.78
2019-03-30T09:21:55.962Z,8.40
2019-03-30T09:24:23.439Z,8.60
2019-03-30T09:26:49.909Z,9.40
2019-03-30T09:29:16.617Z,8.30
2019-03-30T09:31:42.983Z,11.40
2019-03-30T09:34:09.366Z,10.15
2019-03-30T09:36:35.823Z,14.70
2019-03-30T09:39:04.738Z,14.83
2019-03-30T09:41:31.340Z,14.10
2019-03-30T09:43:57.751Z,12.35
2019-03-30T09:46:24.223Z,15.48
2019-03-30T09:48:51.691Z,14.58
2019-03-30T09:51:18.073Z,14.75
2019-03-30T09:53:44.425Z,14.30
2019-03-30T09:56:10.865Z,18.10
2019-03-30T09:58:37.225Z,15.30
2019-03-30T10:01:03.609Z,15.83
2019-03-30T10:03:29.965Z,16.55
2019-03-30T10:05:56.346Z,15.45
2019-03-30T10:08:22.694Z,13.03
2019-03-30T10:10:49.074Z,17.23
2019-03-30T10:13:16.622Z,11.15
2019-03-30T10:15:42.987Z,14.10
2019-03-30T10:18:09.352Z,11.57
2019-03-30T10:20:35.832Z,13.83
2019-03-30T10:23:02.211Z,14.43
2019-03-30T10:25:28.600Z,9.58
2019-03-30T10:27:55.094Z,12.93
2019-03-30T10:30:21.590Z,8.25
2019-03-30T10:32:48.946Z,10.00
2019-03-30T10:35:15.305Z,9.45
2019-03-30T10:37:41.685Z,9.80
2019-03-30T10:40:08.213Z,8.68
2019-03-30T10:42:36.586Z,10.23
2019-03-30T10:45:06.786Z,8.20
2019-03-30T10:47:33.402Z,8.75
2019-03-30T10:49:59.774Z,8.53
2019-03-30T10:52:26.133Z,13.85
2019-03-30T10:54:53.292Z,9.90
2019-03-30T10:57:20.858Z,7.40
2019-03-30T10:59:47.271Z,9.88
2019-03-30T11:02:13.665Z,8.35
2019-03-30T11:04:40.136Z,10.35
2019-03-30T11:07:06.526Z,8.43
2019-03-30T11:09:32.907Z,7.80
2019-03-30T11:11:59.371Z,11.78
2019-03-30T11:14:25.722Z,19.85
2019-03-30T11:16:52.089Z,32.67
2019-03-30T11:19:18.471Z,26.97
2019-03-30T11:21:46.052Z,23.85
2019-03-30T11:24:12.422Z,18.45
2019-03-30T11:26:38.786Z,19.50
2019-03-30T11:29:05.335Z,19.95
2019-03-30T11:31:31.681Z,20.43
2019-03-30T11:33:58.083Z,22.80
2019-03-30T11:36:24.441Z,19.42
2019-03-30T11:38:50.810Z,16.90
2019-03-30T11:41:17.192Z,19.75
2019-03-30T11:43:43.595Z,20.48
2019-03-30T11:46:10.052Z,20.48
2019-03-30T11:48:37.692Z,15.53
2019-03-30T11:51:04.343Z,18.62
2019-03-30T11:53:30.701Z,16.73
2019-03-30T11:55:57.105Z,17.12
2019-03-30T11:58:24.547Z,18.35
2019-03-30T12:00:50.965Z,19.00
2019-03-30T12:03:17.538Z,18.75
2019-03-30T12:05:43.933Z,20.02
2019-03-30T12:08:10.275Z,20.50
2019-03-30T12:10:36.639Z,19.55
2019-03-30T12:13:02.999Z,20.68
2019-03-30T12:15:29.399Z,19.73
2019-03-30T12:17:55.909Z,18.15
2019-03-30T12:20:22.403Z,20.20
2019-03-30T12:22:48.798Z,21.12
2019-03-30T12:25:15.225Z,20.57
2019-03-30T12:27:41.617Z,22.22
2019-03-30T12:30:08.301Z,22.70
2019-03-30T12:32:34.711Z,19.87
2019-03-30T12:35:01.053Z,23.25
2019-03-30T12:37:27.427Z,21.60
2019-03-30T12:39:53.776Z,21.97
2019-03-30T12:42:20.166Z,23.62
2019-03-30T12:44:46.534Z,25.10
2019-03-30T12:47:12.908Z,22.27
2019-03-30T12:49:39.264Z,20.80
2019-03-30T12:52:05.641Z,26.00
2019-03-30T12:54:33.152Z,24.87
2019-03-30T12:56:59.522Z,22.82
2019-03-30T12:59:25.882Z,25.32
2019-03-30T13:01:53.229Z,22.65
2019-03-30T13:04:19.732Z,23.60
2019-03-30T13:06:46.174Z,23.22
2019-03-30T13:09:12.644Z,23.18
2019-03-30T13:11:39.040Z,22.55
2019-03-30T13:14:05.424Z,20.82
2019-03-30T13:16:31.846Z,21.10
2019-03-30T13:18:58.334Z,21.27
2019-03-30T13:21:24.672Z,21.60
2019-03-30T13:23:51.081Z,21.33
2019-03-30T13:26:17.620Z,17.75
2019-03-30T13:28:44.048Z,17.42
2019-03-30T13:31:11.595Z,17.42
2019-03-30T13:33:38.118Z,20.40
2019-03-30T13:36:04.531Z,16.85
2019-03-30T13:38:30.929Z,16.65
2019-03-30T13:40:57.329Z,17.15
2019-03-30T13:43:23.776Z,17.45
2019-03-30T13:45:50.166Z,14.45
2019-03-30T13:48:16.628Z,14.05
2019-03-30T13:50:43.091Z,14.03
2019-03-30T13:53:09.437Z,14.07
2019-03-30T13:55:35.826Z,12.60
2019-03-30T13:58:02.855Z,12.05
2019-03-30T14:00:29.351Z,10.90
2019-03-30T14:02:55.783Z,11.05
2019-03-30T14:05:22.156Z,11.28
2019-03-30T14:07:48.642Z,11.30
2019-03-30T14:10:15.167Z,15.15
2019-03-30T14:12:41.559Z,10.25
2019-03-30T14:15:09.522Z,21.40
2019-03-30T14:17:36.235Z,27.30
2019-03-30T14:20:05.235Z,21.10
2019-03-30T14:22:31.605Z,24.40
2019-03-30T14:24:57.993Z,29.50
2019-03-30T14:27:24.385Z,24.37
2019-03-30T14:29:54.402Z,29.20
2019-03-30T14:32:20.134Z,31.37
2019-03-30T14:34:46.511Z,22.80
2019-03-30T14:37:12.873Z,25.05
2019-03-30T14:39:39.217Z,22.17
2019-03-30T14:42:05.598Z,21.40
2019-03-30T14:44:32.117Z,20.27
2019-03-30T14:46:58.569Z,21.93
2019-03-30T14:49:24.939Z,19.82
2019-03-30T14:51:51.387Z,18.50
2019-03-30T14:54:17.918Z,17.10
2019-03-30T14:56:45.885Z,15.85
2019-03-30T14:59:14.435Z,18.12
2019-03-30T15:01:40.967Z,15.55
2019-03-30T15:04:07.497Z,13.38
2019-03-30T15:06:33.987Z,17.23
2019-03-30T15:09:00.398Z,14.75
2019-03-30T15:11:26.737Z,13.78
2019-03-30T15:13:53.115Z,14.87
2019-03-30T15:16:19.471Z,15.03
2019-03-30T15:18:45.876Z,14.45
2019-03-30T15:21:13.293Z,12.80
2019-03-30T15:23:39.696Z,12.82
2019-03-30T15:26:06.164Z,11.50
2019-03-30T15:28:32.670Z,11.73
2019-03-30T15:30:59.023Z,15.53
2019-03-30T15:33:25.513Z,14.80
2019-03-30T15:35:51.879Z,12.50
2019-03-30T15:38:22.587Z,15.70
2019-03-30T15:40:47.543Z,12.07
2019-03-30T15:43:13.998Z,13.20
2019-03-30T15:45:40.384Z,12.13
2019-03-30T15:48:06.765Z,12.13
2019-03-30T15:50:33.144Z,13.10
2019-03-30T15:52:59.604Z,13.50
2019-03-30T15:55:26.094Z,10.63
2019-03-30T15:57:52.473Z,12.40
2019-03-30T16:00:19.062Z,13.60
2019-03-30T16:02:45.393Z,12.35
2019-03-30T16:05:15.204Z,11.43
2019-03-30T16:07:41.200Z,10.23
2019-03-30T16:10:07.584Z,11.80
2019-03-30T16:12:33.938Z,11.43
2019-03-30T16:15:00.810Z,11.65
2019-03-30T16:17:27.249Z,9.65
2019-03-30T16:19:53.750Z,9.68
2019-03-30T16:22:20.184Z,12.18
2019-03-30T16:24:46.578Z,9.85
2019-03-30T16:27:13.046Z,10.32
2019-03-30T16:29:39.409Z,10.75
2019-03-30T16:32:05.788Z,10.53
2019-03-30T16:34:32.141Z,12.13
2019-03-30T16:36:58.544Z,9.58
2019-03-30T16:39:24.911Z,9.30
2019-03-30T16:41:51.294Z,9.90
2019-03-30T16:44:17.794Z,9.38
2019-03-30T16:46:45.304Z,12.18
2019-03-30T16:49:11.771Z,11.90
2019-03-30T16:51:38.246Z,10.28
2019-03-30T16:54:04.720Z,11.50
2019-03-30T16:56:31.060Z,10.50
2019-03-30T16:58:57.414Z,8.58
2019-03-30T17:01:23.799Z,9.08
2019-03-30T17:03:50.209Z,14.23
2019-03-30T17:06:16.656Z,12.45
2019-03-30T17:08:43.174Z,9.58
2019-03-30T17:11:09.625Z,13.10
2019-03-30T17:13:36.006Z,9.13
2019-03-30T17:16:02.384Z,10.80
2019-03-30T17:18:28.756Z,9.80
2019-03-30T17:20:55.118Z,8.63
2019-03-30T17:23:21.516Z,13.78
2019-03-30T17:25:47.860Z,9.63
2019-03-30T17:28:14.360Z,8.10
2019-03-30T17:30:40.912Z,10.20
2019-03-30T17:33:07.352Z,8.30
2019-03-30T17:35:33.732Z,7.12
2019-03-30T17:38:00.185Z,10.88
2019-03-30T17:40:26.615Z,9.40
2019-03-30T17:42:53.054Z,7.10
2019-03-30T17:45:19.423Z,7.10
2019-03-30T17:47:45.769Z,6.75
2019-03-30T17:50:12.251Z,8.10
2019-03-30T17:52:39.608Z,9.50
2019-03-30T17:55:05.993Z,9.25
2019-03-30T17:57:33.462Z,10.13
2019-03-30T17:59:59.860Z,7.83
2019-03-30T18:02:26.401Z,8.50
2019-03-30T18:04:52.878Z,9.48
2019-03-30T18:07:19.361Z,10.05
2019-03-30T18:09:45.751Z,8.75
2019-03-30T18:12:12.231Z,9.73
2019-03-30T18:14:38.608Z,9.20
2019-03-30T18:17:05.032Z,9.78
2019-03-30T18:19:31.434Z,9.23
2019-03-30T18:21:57.817Z,9.65
2019-03-30T18:24:25.306Z,8.53
2019-03-30T18:26:51.723Z,7.33
2019-03-30T18:29:18.072Z,8.55
2019-03-30T18:31:44.424Z,8.05
2019-03-30T18:34:10.796Z,10.40
2019-03-30T18:36:37.800Z,7.47
2019-03-30T18:39:09.685Z,7.60
2019-03-30T18:41:33.284Z,7.83
2019-03-30T18:44:02.185Z,9.33
2019-03-30T18:46:28.112Z,8.40
2019-03-30T18:48:54.494Z,8.90
2019-03-30T18:51:21.230Z,11.60
2019-03-30T18:53:47.586Z,9.40
2019-03-30T18:56:13.950Z,7.90
2019-03-30T18:58:41.762Z,5.40
2019-03-30T19:01:08.507Z,7.12
2019-03-30T19:03:34.968Z,6.12
2019-03-30T19:06:02.421Z,4.37
2019-03-30T19:08:28.782Z,6.97
2019-03-30T19:10:55.137Z,5.95
2019-03-30T19:13:21.532Z,8.28
2019-03-30T19:15:47.918Z,7.80
2019-03-30T19:18:14.387Z,6.90
2019-03-30T19:20:40.847Z,6.80
2019-03-30T19:23:07.225Z,5.03
2019-03-30T19:25:33.736Z,5.92
2019-03-30T19:28:00.142Z,6.37
2019-03-30T19:30:26.584Z,8.70
2019-03-30T19:32:52.929Z,7.17
2019-03-30T19:35:19.325Z,6.30
2019-03-30T19:37:45.694Z,4.58
2019-03-30T19:40:12.117Z,4.72
2019-03-30T19:42:38.493Z,5.33
2019-03-30T19:45:05.823Z,5.00
2019-03-30T19:47:32.191Z,5.60
2019-03-30T19:49:58.557Z,5.05
2019-03-30T19:52:39.019Z,4.67
